sensor_id;sensor_type;location;lat;lon;timestamp;temperature;humidity
22795;DHT22;11564;50.920;11.612;2023-05-24T00:00:40;8.70;99.90
22795;DHT22;11564;50.920;11.612;2023-05-24T00:03:06;8.60;99.90
22795;DHT22;11564;50.920;11.612;2023-05-24T00:05:33;8.60;99.90
22795;DHT22;11564;50.920;11.612;2023-05-24T00:08:02;8.50;99.90
22795;DHT22;11564;50.920;11.612;2023-05-24T00:10:28;8.50;99.90
22795;DHT22;11564;50.920;11.612;2023-05-24T00:12:54;8.50;99.90
22795;DHT22;11564;50.920;11.612;2023-05-24T00:15:20;8.40;99.90
22795;DHT22;11564;50.920;11.612;2023-05-24T00:17:45;8.40;99.90
22795;DHT22;11564;50.920;11.612;2023-05-24T00:20:11;8.40;99.90
22795;DHT22;11564;50.920;11.612;2023-05-24T00:22:38;8.40;99.90
22795;DHT22;11564;50.920;11.612;2023-05-24T00:25:04;8.40;99.90
22795;DHT22;11564;50.920;11.612;2023-05-24T00:27:30;8.50;99.90
22795;DHT22;11564;50.920;11.612;2023-05-24T00:29:56;8.60;99.90
22795;DHT22;11564;50.920;11.612;2023-05-24T00:32:21;8.60;99.90
22795;DHT22;11564;50.920;11.612;2023-05-24T00:34:47;8.50;99.90
22795;DHT22;11564;50.920;11.612;2023-05-24T00:37:13;8.50;99.90
22795;DHT22;11564;50.920;11.612;2023-05-24T00:39:39;8.50;99.90
22795;DHT22;11564;50.920;11.612;2023-05-24T00:42:05;8.50;99.90
22795;DHT22;11564;50.920;11.612;2023-05-24T00:44:31;8.50;99.90
22795;DHT22;11564;50.920;11.612;2023-05-24T00:46:57;8.50;99.90
22795;DHT22;11564;50.920;11.612;2023-05-24T00:49:22;8.50;99.90
22795;DHT22;11564;50.920;11.612;2023-05-24T00:51:50;8.50;99.90
22795;DHT22;11564;50.920;11.612;2023-05-24T00:54:17;8.50;99.90
22795;DHT22;11564;50.920;11.612;2023-05-24T00:56:43;8.50;99.90
22795;DHT22;11564;50.920;11.612;2023-05-24T00:59:09;8.40;99.90
22795;DHT22;11564;50.920;11.612;2023-05-24T01:01:35;8.30;99.90
22795;DHT22;11564;50.920;11.612;2023-05-24T01:04:02;8.30;99.90
22795;DHT22;11564;50.920;11.612;2023-05-24T01:06:27;8.30;99.90
22795;DHT22;11564;50.920;11.612;2023-05-24T01:09:44;8.40;99.90
22795;DHT22;11564;50.920;11.612;2023-05-24T01:15:06;8.40;99.90
22795;DHT22;11564;50.920;11.612;2023-05-24T01:20:07;8.30;99.90
22795;DHT22;11564;50.920;11.612;2023-05-24T01:28:17;8.20;99.90
22795;DHT22;11564;50.920;11.612;2023-05-24T01:30:43;8.20;99.90
22795;DHT22;11564;50.920;11.612;2023-05-24T01:33:09;8.20;99.90
22795;DHT22;11564;50.920;11.612;2023-05-24T01:35:35;8.10;99.90
22795;DHT22;11564;50.920;11.612;2023-05-24T01:38:08;8.10;99.90
22795;DHT22;11564;50.920;11.612;2023-05-24T01:40:37;8.10;99.90
22795;DHT22;11564;50.920;11.612;2023-05-24T01:43:04;8.10;99.90
22795;DHT22;11564;50.920;11.612;2023-05-24T01:49:17;8.00;99.90
22795;DHT22;11564;50.920;11.612;2023-05-24T01:51:53;8.00;99.90
22795;DHT22;11564;50.920;11.612;2023-05-24T01:54:23;8.00;99.90
22795;DHT22;11564;50.920;11.612;2023-05-24T01:56:52;8.10;99.90
22795;DHT22;11564;50.920;11.612;2023-05-24T01:59:19;8.00;99.90
22795;DHT22;11564;50.920;11.612;2023-05-24T02:01:46;8.10;99.90
22795;DHT22;11564;50.920;11.612;2023-05-24T02:04:13;8.10;99.90
22795;DHT22;11564;50.920;11.612;2023-05-24T02:06:38;8.10;99.90
22795;DHT22;11564;50.920;11.612;2023-05-24T02:09:04;8.10;99.90
22795;DHT22;11564;50.920;11.612;2023-05-24T02:11:30;8.00;99.90
22795;DHT22;11564;50.920;11.612;2023-05-24T02:13:55;7.90;99.90
22795;DHT22;11564;50.920;11.612;2023-05-24T02:16:21;7.90;99.90
22795;DHT22;11564;50.920;11.612;2023-05-24T02:18:49;7.90;99.90
22795;DHT22;11564;50.920;11.612;2023-05-24T02:21:15;7.80;99.90
22795;DHT22;11564;50.920;11.612;2023-05-24T02:23:40;7.80;99.90
22795;DHT22;11564;50.920;11.612;2023-05-24T02:26:06;7.80;99.90
22795;DHT22;11564;50.920;11.612;2023-05-24T02:28:35;7.80;99.90
22795;DHT22;11564;50.920;11.612;2023-05-24T02:31:01;7.80;99.90
22795;DHT22;11564;50.920;11.612;2023-05-24T02:33:27;7.80;99.90
22795;DHT22;11564;50.920;11.612;2023-05-24T02:35:54;7.80;99.90
22795;DHT22;11564;50.920;11.612;2023-05-24T02:38:21;7.70;99.90
22795;DHT22;11564;50.920;11.612;2023-05-24T02:40:46;7.70;99.90
22795;DHT22;11564;50.920;11.612;2023-05-24T02:43:12;7.70;99.90
22795;DHT22;11564;50.920;11.612;2023-05-24T02:45:38;7.70;99.90
22795;DHT22;11564;50.920;11.612;2023-05-24T02:48:03;7.70;99.90
22795;DHT22;11564;50.920;11.612;2023-05-24T02:50:29;7.70;99.90
22795;DHT22;11564;50.920;11.612;2023-05-24T02:52:55;7.70;99.90
22795;DHT22;11564;50.920;11.612;2023-05-24T02:55:21;7.70;99.90
22795;DHT22;11564;50.920;11.612;2023-05-24T02:57:46;7.70;99.90
22795;DHT22;11564;50.920;11.612;2023-05-24T03:00:13;7.60;99.90
22795;DHT22;11564;50.920;11.612;2023-05-24T03:02:38;7.60;99.90
22795;DHT22;11564;50.920;11.612;2023-05-24T03:05:08;7.50;99.90
22795;DHT22;11564;50.920;11.612;2023-05-24T03:07:34;7.40;99.90
22795;DHT22;11564;50.920;11.612;2023-05-24T03:10:00;7.50;99.90
22795;DHT22;11564;50.920;11.612;2023-05-24T03:12:25;7.50;99.90
22795;DHT22;11564;50.920;11.612;2023-05-24T03:14:51;7.40;99.90
22795;DHT22;11564;50.920;11.612;2023-05-24T03:17:17;7.40;99.90
22795;DHT22;11564;50.920;11.612;2023-05-24T03:19:42;7.30;99.90
22795;DHT22;11564;50.920;11.612;2023-05-24T03:22:08;7.30;99.90
22795;DHT22;11564;50.920;11.612;2023-05-24T03:24:34;7.40;99.90
22795;DHT22;11564;50.920;11.612;2023-05-24T03:26:59;7.40;99.90
22795;DHT22;11564;50.920;11.612;2023-05-24T03:29:25;7.40;99.90
22795;DHT22;11564;50.920;11.612;2023-05-24T03:31:51;7.40;99.90
22795;DHT22;11564;50.920;11.612;2023-05-24T03:34:16;7.50;99.90
22795;DHT22;11564;50.920;11.612;2023-05-24T03:36:42;7.50;99.90
22795;DHT22;11564;50.920;11.612;2023-05-24T03:39:08;7.50;99.90
22795;DHT22;11564;50.920;11.612;2023-05-24T03:41:33;7.60;99.90
22795;DHT22;11564;50.920;11.612;2023-05-24T03:43:59;7.70;99.90
22795;DHT22;11564;50.920;11.612;2023-05-24T03:46:25;7.70;99.90
22795;DHT22;11564;50.920;11.612;2023-05-24T03:48:51;7.60;99.90
22795;DHT22;11564;50.920;11.612;2023-05-24T03:51:16;7.60;99.90
22795;DHT22;11564;50.920;11.612;2023-05-24T03:53:42;7.50;99.90
22795;DHT22;11564;50.920;11.612;2023-05-24T03:56:08;7.60;99.90
22795;DHT22;11564;50.920;11.612;2023-05-24T03:58:33;7.70;99.90
22795;DHT22;11564;50.920;11.612;2023-05-24T04:00:59;7.80;99.90
22795;DHT22;11564;50.920;11.612;2023-05-24T04:03:25;7.80;99.90
22795;DHT22;11564;50.920;11.612;2023-05-24T04:05:51;7.90;99.90
22795;DHT22;11564;50.920;11.612;2023-05-24T04:08:17;8.10;99.90
22795;DHT22;11564;50.920;11.612;2023-05-24T04:10:43;8.20;99.90
22795;DHT22;11564;50.920;11.612;2023-05-24T04:13:08;8.30;99.90
22795;DHT22;11564;50.920;11.612;2023-05-24T04:15:34;8.30;99.90
22795;DHT22;11564;50.920;11.612;2023-05-24T04:18:00;8.00;99.90
22795;DHT22;11564;50.920;11.612;2023-05-24T04:20:27;8.10;99.90
22795;DHT22;11564;50.920;11.612;2023-05-24T04:22:53;8.20;99.90
22795;DHT22;11564;50.920;11.612;2023-05-24T04:25:21;8.30;99.90
22795;DHT22;11564;50.920;11.612;2023-05-24T04:27:47;8.30;99.90
22795;DHT22;11564;50.920;11.612;2023-05-24T04:30:13;8.30;99.90
22795;DHT22;11564;50.920;11.612;2023-05-24T04:32:40;8.30;99.90
22795;DHT22;11564;50.920;11.612;2023-05-24T04:35:06;8.30;99.90
22795;DHT22;11564;50.920;11.612;2023-05-24T04:37:32;8.40;99.90
22795;DHT22;11564;50.920;11.612;2023-05-24T04:39:58;8.40;99.90
22795;DHT22;11564;50.920;11.612;2023-05-24T04:42:23;8.50;99.90
22795;DHT22;11564;50.920;11.612;2023-05-24T04:44:49;8.50;99.90
22795;DHT22;11564;50.920;11.612;2023-05-24T04:47:15;8.50;99.90
22795;DHT22;11564;50.920;11.612;2023-05-24T04:49:41;8.40;99.90
22795;DHT22;11564;50.920;11.612;2023-05-24T04:52:07;8.30;99.90
22795;DHT22;11564;50.920;11.612;2023-05-24T04:54:33;8.30;99.90
22795;DHT22;11564;50.920;11.612;2023-05-24T04:56:59;8.20;99.90
22795;DHT22;11564;50.920;11.612;2023-05-24T04:59:24;8.30;99.90
22795;DHT22;11564;50.920;11.612;2023-05-24T05:01:50;8.30;99.90
22795;DHT22;11564;50.920;11.612;2023-05-24T05:04:16;8.30;99.90
22795;DHT22;11564;50.920;11.612;2023-05-24T05:06:42;8.20;99.90
22795;DHT22;11564;50.920;11.612;2023-05-24T05:09:09;8.20;99.90
22795;DHT22;11564;50.920;11.612;2023-05-24T05:11:37;8.10;99.90
22795;DHT22;11564;50.920;11.612;2023-05-24T05:14:03;8.20;99.90
22795;DHT22;11564;50.920;11.612;2023-05-24T05:16:28;8.20;99.90
22795;DHT22;11564;50.920;11.612;2023-05-24T05:18:54;8.20;99.90
22795;DHT22;11564;50.920;11.612;2023-05-24T05:21:19;8.20;99.90
22795;DHT22;11564;50.920;11.612;2023-05-24T05:23:45;8.30;99.90
22795;DHT22;11564;50.920;11.612;2023-05-24T05:26:11;8.30;99.90
22795;DHT22;11564;50.920;11.612;2023-05-24T05:28:36;8.50;99.90
22795;DHT22;11564;50.920;11.612;2023-05-24T05:31:02;8.50;99.90
22795;DHT22;11564;50.920;11.612;2023-05-24T05:33:30;8.60;99.90
22795;DHT22;11564;50.920;11.612;2023-05-24T05:35:56;8.80;99.90
22795;DHT22;11564;50.920;11.612;2023-05-24T05:38:22;8.90;99.90
22795;DHT22;11564;50.920;11.612;2023-05-24T05:40:48;8.90;99.90
22795;DHT22;11564;50.920;11.612;2023-05-24T05:43:13;8.90;99.90
22795;DHT22;11564;50.920;11.612;2023-05-24T05:45:39;8.90;99.90
22795;DHT22;11564;50.920;11.612;2023-05-24T05:48:05;8.60;99.90
22795;DHT22;11564;50.920;11.612;2023-05-24T05:50:31;8.70;99.90
22795;DHT22;11564;50.920;11.612;2023-05-24T05:52:56;8.90;99.90
22795;DHT22;11564;50.920;11.612;2023-05-24T05:55:23;8.90;99.90
22795;DHT22;11564;50.920;11.612;2023-05-24T05:57:48;9.00;99.90
22795;DHT22;11564;50.920;11.612;2023-05-24T06:00:14;9.00;99.90
22795;DHT22;11564;50.920;11.612;2023-05-24T06:02:40;9.40;99.90
22795;DHT22;11564;50.920;11.612;2023-05-24T06:05:06;9.60;99.90
22795;DHT22;11564;50.920;11.612;2023-05-24T06:07:32;9.70;99.90
22795;DHT22;11564;50.920;11.612;2023-05-24T06:09:58;9.90;99.90
22795;DHT22;11564;50.920;11.612;2023-05-24T06:12:24;10.10;99.90
22795;DHT22;11564;50.920;11.612;2023-05-24T06:14:49;10.00;99.90
22795;DHT22;11564;50.920;11.612;2023-05-24T06:17:16;10.10;99.90
22795;DHT22;11564;50.920;11.612;2023-05-24T06:19:42;9.70;99.90
22795;DHT22;11564;50.920;11.612;2023-05-24T06:22:08;9.10;99.90
22795;DHT22;11564;50.920;11.612;2023-05-24T06:24:34;9.20;99.90
22795;DHT22;11564;50.920;11.612;2023-05-24T06:26:59;9.20;99.90
22795;DHT22;11564;50.920;11.612;2023-05-24T06:29:26;9.30;99.90
22795;DHT22;11564;50.920;11.612;2023-05-24T06:31:51;9.10;99.90
22795;DHT22;11564;50.920;11.612;2023-05-24T06:34:17;9.30;99.90
22795;DHT22;11564;50.920;11.612;2023-05-24T06:36:46;9.40;99.90
22795;DHT22;11564;50.920;11.612;2023-05-24T06:39:13;9.40;99.90
22795;DHT22;11564;50.920;11.612;2023-05-24T06:41:39;9.40;99.90
22795;DHT22;11564;50.920;11.612;2023-05-24T06:44:06;9.50;99.90
22795;DHT22;11564;50.920;11.612;2023-05-24T06:46:32;9.50;99.90
22795;DHT22;11564;50.920;11.612;2023-05-24T06:48:58;10.00;99.90
22795;DHT22;11564;50.920;11.612;2023-05-24T06:51:23;10.00;99.90
22795;DHT22;11564;50.920;11.612;2023-05-24T06:53:49;10.20;99.90
22795;DHT22;11564;50.920;11.612;2023-05-24T06:56:15;10.40;99.90
22795;DHT22;11564;50.920;11.612;2023-05-24T06:58:41;10.50;99.90
22795;DHT22;11564;50.920;11.612;2023-05-24T07:01:07;10.70;99.90
22795;DHT22;11564;50.920;11.612;2023-05-24T07:03:33;10.60;99.90
22795;DHT22;11564;50.920;11.612;2023-05-24T07:05:59;10.80;99.90
22795;DHT22;11564;50.920;11.612;2023-05-24T07:08:25;11.30;99.90
22795;DHT22;11564;50.920;11.612;2023-05-24T07:10:51;11.70;99.90
22795;DHT22;11564;50.920;11.612;2023-05-24T07:13:17;12.10;99.30
22795;DHT22;11564;50.920;11.612;2023-05-24T07:15:45;12.30;99.70
22795;DHT22;11564;50.920;11.612;2023-05-24T07:18:11;12.60;99.80
22795;DHT22;11564;50.920;11.612;2023-05-24T07:20:37;11.60;98.30
22795;DHT22;11564;50.920;11.612;2023-05-24T07:23:03;11.20;99.90
22795;DHT22;11564;50.920;11.612;2023-05-24T07:25:29;11.60;99.90
22795;DHT22;11564;50.920;11.612;2023-05-24T07:27:55;11.80;98.50
22795;DHT22;11564;50.920;11.612;2023-05-24T07:30:21;11.20;99.30
22795;DHT22;11564;50.920;11.612;2023-05-24T07:32:47;11.00;98.90
22795;DHT22;11564;50.920;11.612;2023-05-24T07:35:12;11.10;99.00
22795;DHT22;11564;50.920;11.612;2023-05-24T07:37:38;11.20;99.50
22795;DHT22;11564;50.920;11.612;2023-05-24T07:40:05;11.70;99.00
22795;DHT22;11564;50.920;11.612;2023-05-24T07:42:34;11.70;97.70
22795;DHT22;11564;50.920;11.612;2023-05-24T07:45:00;11.70;97.50
22795;DHT22;11564;50.920;11.612;2023-05-24T07:47:26;11.50;98.40
22795;DHT22;11564;50.920;11.612;2023-05-24T07:49:52;11.40;98.30
22795;DHT22;11564;50.920;11.612;2023-05-24T07:52:17;11.80;98.20
22795;DHT22;11564;50.920;11.612;2023-05-24T07:54:43;12.10;97.10
22795;DHT22;11564;50.920;11.612;2023-05-24T07:57:08;12.70;97.20
22795;DHT22;11564;50.920;11.612;2023-05-24T07:59:34;13.00;97.30
22795;DHT22;11564;50.920;11.612;2023-05-24T08:02:00;13.50;97.10
22795;DHT22;11564;50.920;11.612;2023-05-24T08:04:32;13.80;95.80
22795;DHT22;11564;50.920;11.612;2023-05-24T08:06:58;13.70;94.40
22795;DHT22;11564;50.920;11.612;2023-05-24T08:09:26;13.10;94.80
22795;DHT22;11564;50.920;11.612;2023-05-24T08:11:54;12.80;95.20
22795;DHT22;11564;50.920;11.612;2023-05-24T08:14:21;12.90;95.80
22795;DHT22;11564;50.920;11.612;2023-05-24T08:16:47;13.40;96.00
22795;DHT22;11564;50.920;11.612;2023-05-24T08:19:12;13.40;94.20
22795;DHT22;11564;50.920;11.612;2023-05-24T08:21:38;12.70;94.30
22795;DHT22;11564;50.920;11.612;2023-05-24T08:24:06;13.00;93.80
22795;DHT22;11564;50.920;11.612;2023-05-24T08:26:31;13.70;94.20
22795;DHT22;11564;50.920;11.612;2023-05-24T08:28:57;14.30;93.70
22795;DHT22;11564;50.920;11.612;2023-05-24T08:31:23;13.40;91.60
22795;DHT22;11564;50.920;11.612;2023-05-24T08:33:48;13.30;91.60
22795;DHT22;11564;50.920;11.612;2023-05-24T08:36:16;13.40;92.00
22795;DHT22;11564;50.920;11.612;2023-05-24T08:38:42;13.20;93.30
22795;DHT22;11564;50.920;11.612;2023-05-24T08:41:10;13.70;91.10
22795;DHT22;11564;50.920;11.612;2023-05-24T08:43:37;14.40;92.50
22795;DHT22;11564;50.920;11.612;2023-05-24T08:46:03;14.80;91.00
22795;DHT22;11564;50.920;11.612;2023-05-24T08:48:30;15.20;90.80
22795;DHT22;11564;50.920;11.612;2023-05-24T08:50:56;14.60;90.40
22795;DHT22;11564;50.920;11.612;2023-05-24T08:53:23;14.10;90.70
22795;DHT22;11564;50.920;11.612;2023-05-24T08:55:49;13.20;92.20
22795;DHT22;11564;50.920;11.612;2023-05-24T08:58:18;13.20;92.60
22795;DHT22;11564;50.920;11.612;2023-05-24T09:00:44;13.70;92.60
22795;DHT22;11564;50.920;11.612;2023-05-24T09:03:10;13.90;91.10
22795;DHT22;11564;50.920;11.612;2023-05-24T09:05:36;14.30;91.30
22795;DHT22;11564;50.920;11.612;2023-05-24T09:08:02;15.40;90.10
22795;DHT22;11564;50.920;11.612;2023-05-24T09:10:31;16.00;90.10
22795;DHT22;11564;50.920;11.612;2023-05-24T09:13:01;16.00;87.00
22795;DHT22;11564;50.920;11.612;2023-05-24T09:15:27;15.60;85.00
22795;DHT22;11564;50.920;11.612;2023-05-24T09:17:53;15.80;85.70
22795;DHT22;11564;50.920;11.612;2023-05-24T09:20:21;13.80;86.10
22795;DHT22;11564;50.920;11.612;2023-05-24T09:22:51;13.50;87.70
22795;DHT22;11564;50.920;11.612;2023-05-24T09:25:18;13.70;86.10
22795;DHT22;11564;50.920;11.612;2023-05-24T09:27:52;13.30;87.40
22795;DHT22;11564;50.920;11.612;2023-05-24T09:30:18;13.50;89.60
22795;DHT22;11564;50.920;11.612;2023-05-24T09:32:59;13.30;89.90
22795;DHT22;11564;50.920;11.612;2023-05-24T09:35:26;13.10;88.70
22795;DHT22;11564;50.920;11.612;2023-05-24T09:37:58;13.10;89.50
22795;DHT22;11564;50.920;11.612;2023-05-24T09:40:25;12.70;88.80
22795;DHT22;11564;50.920;11.612;2023-05-24T09:43:07;12.80;88.50
22795;DHT22;11564;50.920;11.612;2023-05-24T09:45:53;12.90;88.50
22795;DHT22;11564;50.920;11.612;2023-05-24T09:48:20;13.80;88.40
22795;DHT22;11564;50.920;11.612;2023-05-24T09:51:06;14.00;86.60
22795;DHT22;11564;50.920;11.612;2023-05-24T09:53:36;14.10;88.20
22795;DHT22;11564;50.920;11.612;2023-05-24T09:56:05;14.60;86.90
22795;DHT22;11564;50.920;11.612;2023-05-24T09:58:34;14.30;86.70
22795;DHT22;11564;50.920;11.612;2023-05-24T10:03:31;14.40;87.00
22795;DHT22;11564;50.920;11.612;2023-05-24T10:05:57;14.20;85.50
22795;DHT22;11564;50.920;11.612;2023-05-24T10:08:23;13.80;86.30
22795;DHT22;11564;50.920;11.612;2023-05-24T10:10:48;14.10;87.70
22795;DHT22;11564;50.920;11.612;2023-05-24T10:13:15;13.80;86.80
22795;DHT22;11564;50.920;11.612;2023-05-24T10:15:43;13.60;87.50
22795;DHT22;11564;50.920;11.612;2023-05-24T10:18:09;14.30;89.50
22795;DHT22;11564;50.920;11.612;2023-05-24T10:20:35;14.50;84.80
22795;DHT22;11564;50.920;11.612;2023-05-24T10:23:03;15.10;84.90
22795;DHT22;11564;50.920;11.612;2023-05-24T10:25:33;15.40;83.40
22795;DHT22;11564;50.920;11.612;2023-05-24T10:28:03;14.70;85.00
22795;DHT22;11564;50.920;11.612;2023-05-24T10:31:04;14.20;86.70
22795;DHT22;11564;50.920;11.612;2023-05-24T10:33:35;14.10;88.80
22795;DHT22;11564;50.920;11.612;2023-05-24T10:36:03;14.60;86.80
22795;DHT22;11564;50.920;11.612;2023-05-24T10:38:29;15.40;86.50
22795;DHT22;11564;50.920;11.612;2023-05-24T10:40:56;16.10;83.00
22795;DHT22;11564;50.920;11.612;2023-05-24T10:43:22;15.20;82.70
22795;DHT22;11564;50.920;11.612;2023-05-24T10:45:48;15.00;83.70
22795;DHT22;11564;50.920;11.612;2023-05-24T10:50:41;14.90;83.40
22795;DHT22;11564;50.920;11.612;2023-05-24T10:53:17;14.40;84.80
22795;DHT22;11564;50.920;11.612;2023-05-24T10:56:02;13.90;85.00
22795;DHT22;11564;50.920;11.612;2023-05-24T11:01:29;15.10;83.60
22795;DHT22;11564;50.920;11.612;2023-05-24T11:04:25;14.80;83.10
22795;DHT22;11564;50.920;11.612;2023-05-24T11:07:00;14.90;81.20
22795;DHT22;11564;50.920;11.612;2023-05-24T11:09:27;15.00;84.90
22795;DHT22;11564;50.920;11.612;2023-05-24T11:11:55;15.90;81.80
22795;DHT22;11564;50.920;11.612;2023-05-24T11:14:28;15.90;81.20
22795;DHT22;11564;50.920;11.612;2023-05-24T11:16:54;16.00;83.20
22795;DHT22;11564;50.920;11.612;2023-05-24T11:19:32;15.80;81.40
22795;DHT22;11564;50.920;11.612;2023-05-24T11:21:59;15.00;80.40
22795;DHT22;11564;50.920;11.612;2023-05-24T11:24:26;14.50;80.30
22795;DHT22;11564;50.920;11.612;2023-05-24T11:26:52;14.80;82.10
22795;DHT22;11564;50.920;11.612;2023-05-24T11:29:18;14.70;81.70
22795;DHT22;11564;50.920;11.612;2023-05-24T11:31:57;14.70;84.50
22795;DHT22;11564;50.920;11.612;2023-05-24T11:34:28;14.60;82.90
22795;DHT22;11564;50.920;11.612;2023-05-24T11:36:54;14.40;82.60
22795;DHT22;11564;50.920;11.612;2023-05-24T11:39:19;14.80;82.70
22795;DHT22;11564;50.920;11.612;2023-05-24T11:41:46;15.30;81.90
22795;DHT22;11564;50.920;11.612;2023-05-24T11:44:16;15.10;81.60
22795;DHT22;11564;50.920;11.612;2023-05-24T11:46:42;15.20;81.20
22795;DHT22;11564;50.920;11.612;2023-05-24T11:49:14;14.80;81.50
22795;DHT22;11564;50.920;11.612;2023-05-24T11:51:41;15.20;82.50
22795;DHT22;11564;50.920;11.612;2023-05-24T11:54:07;16.40;83.30
22795;DHT22;11564;50.920;11.612;2023-05-24T11:56:33;16.80;80.30
22795;DHT22;11564;50.920;11.612;2023-05-24T12:01:30;16.40;78.00
22795;DHT22;11564;50.920;11.612;2023-05-24T12:03:56;16.10;76.70
22795;DHT22;11564;50.920;11.612;2023-05-24T12:06:21;15.70;78.50
22795;DHT22;11564;50.920;11.612;2023-05-24T12:08:48;15.90;79.70
22795;DHT22;11564;50.920;11.612;2023-05-24T12:11:14;15.60;80.40
22795;DHT22;11564;50.920;11.612;2023-05-24T12:13:40;15.30;81.80
22795;DHT22;11564;50.920;11.612;2023-05-24T12:16:06;15.60;82.20
22795;DHT22;11564;50.920;11.612;2023-05-24T12:18:32;16.30;79.90
22795;DHT22;11564;50.920;11.612;2023-05-24T12:20:58;16.30;79.30
22795;DHT22;11564;50.920;11.612;2023-05-24T12:23:27;16.30;79.00
22795;DHT22;11564;50.920;11.612;2023-05-24T12:26:00;16.60;79.00
22795;DHT22;11564;50.920;11.612;2023-05-24T12:28:31;16.30;79.00
22795;DHT22;11564;50.920;11.612;2023-05-24T12:30:56;15.50;77.40
22795;DHT22;11564;50.920;11.612;2023-05-24T12:33:22;16.30;79.00
22795;DHT22;11564;50.920;11.612;2023-05-24T12:35:48;16.50;76.30
22795;DHT22;11564;50.920;11.612;2023-05-24T12:38:14;16.50;76.30
22795;DHT22;11564;50.920;11.612;2023-05-24T12:40:44;15.90;76.30
22795;DHT22;11564;50.920;11.612;2023-05-24T12:43:11;15.70;78.30
22795;DHT22;11564;50.920;11.612;2023-05-24T12:45:39;16.30;76.90
22795;DHT22;11564;50.920;11.612;2023-05-24T12:48:04;16.70;75.90
22795;DHT22;11564;50.920;11.612;2023-05-24T12:50:30;17.20;77.20
22795;DHT22;11564;50.920;11.612;2023-05-24T12:52:56;16.70;77.20
22795;DHT22;11564;50.920;11.612;2023-05-24T12:55:23;16.00;78.40
22795;DHT22;11564;50.920;11.612;2023-05-24T12:57:50;16.00;78.10
22795;DHT22;11564;50.920;11.612;2023-05-24T13:00:22;16.00;78.20
22795;DHT22;11564;50.920;11.612;2023-05-24T13:02:48;16.20;77.30
22795;DHT22;11564;50.920;11.612;2023-05-24T13:05:14;16.30;79.20
22795;DHT22;11564;50.920;11.612;2023-05-24T13:07:42;15.80;78.70
22795;DHT22;11564;50.920;11.612;2023-05-24T13:10:09;16.20;78.90
22795;DHT22;11564;50.920;11.612;2023-05-24T13:12:34;16.20;78.40
22795;DHT22;11564;50.920;11.612;2023-05-24T13:15:01;16.90;77.90
22795;DHT22;11564;50.920;11.612;2023-05-24T13:17:27;18.90;76.50
22795;DHT22;11564;50.920;11.612;2023-05-24T13:19:53;19.40;74.60
22795;DHT22;11564;50.920;11.612;2023-05-24T13:22:19;19.00;72.60
22795;DHT22;11564;50.920;11.612;2023-05-24T13:24:45;19.30;73.20
22795;DHT22;11564;50.920;11.612;2023-05-24T13:27:11;17.90;73.40
22795;DHT22;11564;50.920;11.612;2023-05-24T13:29:37;17.50;74.40
22795;DHT22;11564;50.920;11.612;2023-05-24T13:32:03;16.70;74.60
22795;DHT22;11564;50.920;11.612;2023-05-24T13:34:28;16.70;74.90
22795;DHT22;11564;50.920;11.612;2023-05-24T13:36:54;18.40;73.20
22795;DHT22;11564;50.920;11.612;2023-05-24T13:39:21;23.10;67.40
22795;DHT22;11564;50.920;11.612;2023-05-24T13:41:47;27.00;58.70
22795;DHT22;11564;50.920;11.612;2023-05-24T13:44:14;29.40;52.10
22795;DHT22;11564;50.920;11.612;2023-05-24T13:46:41;30.50;48.30
22795;DHT22;11564;50.920;11.612;2023-05-24T13:49:08;32.70;44.50
22795;DHT22;11564;50.920;11.612;2023-05-24T13:51:34;28.80;44.10
22795;DHT22;11564;50.920;11.612;2023-05-24T13:54:00;27.00;48.30
22795;DHT22;11564;50.920;11.612;2023-05-24T13:56:26;23.20;51.50
22795;DHT22;11564;50.920;11.612;2023-05-24T13:58:57;20.40;55.70
22795;DHT22;11564;50.920;11.612;2023-05-24T14:01:23;18.30;60.70
22795;DHT22;11564;50.920;11.612;2023-05-24T14:03:49;17.40;63.60
22795;DHT22;11564;50.920;11.612;2023-05-24T14:06:15;16.50;64.60
22795;DHT22;11564;50.920;11.612;2023-05-24T14:08:40;16.40;65.40
22795;DHT22;11564;50.920;11.612;2023-05-24T14:11:07;17.40;65.10
22795;DHT22;11564;50.920;11.612;2023-05-24T14:13:32;18.00;64.20
22795;DHT22;11564;50.920;11.612;2023-05-24T14:15:58;20.80;59.90
22795;DHT22;11564;50.920;11.612;2023-05-24T14:18:23;21.50;58.90
22795;DHT22;11564;50.920;11.612;2023-05-24T14:20:49;24.40;54.70
22795;DHT22;11564;50.920;11.612;2023-05-24T14:23:15;25.80;49.70
22795;DHT22;11564;50.920;11.612;2023-05-24T14:25:40;29.40;48.30
22795;DHT22;11564;50.920;11.612;2023-05-24T14:28:06;31.40;43.50
22795;DHT22;11564;50.920;11.612;2023-05-24T14:30:32;30.20;43.10
22795;DHT22;11564;50.920;11.612;2023-05-24T14:32:58;33.30;41.20
22795;DHT22;11564;50.920;11.612;2023-05-24T14:35:25;30.60;41.30
22795;DHT22;11564;50.920;11.612;2023-05-24T14:37:51;28.10;41.80
22795;DHT22;11564;50.920;11.612;2023-05-24T14:40:18;25.70;44.90
22795;DHT22;11564;50.920;11.612;2023-05-24T14:42:43;25.20;47.20
22795;DHT22;11564;50.920;11.612;2023-05-24T14:45:09;25.20;48.10
22795;DHT22;11564;50.920;11.612;2023-05-24T14:47:35;27.00;46.20
22795;DHT22;11564;50.920;11.612;2023-05-24T14:50:01;29.10;45.10
22795;DHT22;11564;50.920;11.612;2023-05-24T14:52:26;28.30;44.40
22795;DHT22;11564;50.920;11.612;2023-05-24T14:54:52;30.20;43.50
22795;DHT22;11564;50.920;11.612;2023-05-24T14:57:18;30.80;42.30
22795;DHT22;11564;50.920;11.612;2023-05-24T14:59:44;29.00;44.00
22795;DHT22;11564;50.920;11.612;2023-05-24T15:02:09;29.60;44.40
22795;DHT22;11564;50.920;11.612;2023-05-24T15:04:35;33.30;43.50
22795;DHT22;11564;50.920;11.612;2023-05-24T15:07:01;33.00;41.20
22795;DHT22;11564;50.920;11.612;2023-05-24T15:09:27;32.40;42.10
22795;DHT22;11564;50.920;11.612;2023-05-24T15:11:53;28.70;43.70
22795;DHT22;11564;50.920;11.612;2023-05-24T15:14:19;28.60;45.30
22795;DHT22;11564;50.920;11.612;2023-05-24T15:16:45;26.10;46.40
22795;DHT22;11564;50.920;11.612;2023-05-24T15:19:10;27.40;46.30
22795;DHT22;11564;50.920;11.612;2023-05-24T15:21:37;27.40;45.50
22795;DHT22;11564;50.920;11.612;2023-05-24T15:24:03;28.70;44.70
22795;DHT22;11564;50.920;11.612;2023-05-24T15:26:28;30.60;42.80
22795;DHT22;11564;50.920;11.612;2023-05-24T15:28:54;29.60;42.80
22795;DHT22;11564;50.920;11.612;2023-05-24T15:31:20;29.00;42.90
22795;DHT22;11564;50.920;11.612;2023-05-24T15:33:45;27.90;44.90
22795;DHT22;11564;50.920;11.612;2023-05-24T15:36:11;26.90;44.60
22795;DHT22;11564;50.920;11.612;2023-05-24T15:38:39;27.10;45.20
22795;DHT22;11564;50.920;11.612;2023-05-24T15:41:05;24.50;47.90
22795;DHT22;11564;50.920;11.612;2023-05-24T15:43:30;26.40;47.50
22795;DHT22;11564;50.920;11.612;2023-05-24T15:45:56;28.20;45.20